sensor_id;sensor_type;location;lat;lon;timestamp;P1;durP1;ratioP1;P2;durP2;ratioP2
75012;SDS011;63567;49.956;20.130;2023-03-01T00:00:45;39.20;;;16.43;;
75012;SDS011;63567;49.956;20.130;2023-03-01T00:03:11;36.28;;;16.30;;
75012;SDS011;63567;49.956;20.130;2023-03-01T00:05:42;33.03;;;16.27;;
75012;SDS011;63567;49.956;20.130;2023-03-01T00:08:08;33.80;;;14.10;;
75012;SDS011;63567;49.956;20.130;2023-03-01T00:10:34;32.97;;;15.00;;
75012;SDS011;63567;49.956;20.130;2023-03-01T00:12:59;34.13;;;16.63;;
75012;SDS011;63567;49.956;20.130;2023-03-01T00:15:24;33.33;;;14.73;;
75012;SDS011;63567;49.956;20.130;2023-03-01T00:17:49;36.47;;;14.33;;
75012;SDS011;63567;49.956;20.130;2023-03-01T00:20:15;32.30;;;14.40;;
75012;SDS011;63567;49.956;20.130;2023-03-01T00:22:40;33.72;;;14.80;;
75012;SDS011;63567;49.956;20.130;2023-03-01T00:25:05;32.37;;;14.53;;
75012;SDS011;63567;49.956;20.130;2023-03-01T00:27:31;33.60;;;14.38;;
75012;SDS011;63567;49.956;20.130;2023-03-01T00:29:56;37.67;;;15.00;;
75012;SDS011;63567;49.956;20.130;2023-03-01T00:32:21;31.27;;;13.33;;
75012;SDS011;63567;49.956;20.130;2023-03-01T00:34:47;31.63;;;13.47;;
75012;SDS011;63567;49.956;20.130;2023-03-01T00:37:19;31.95;;;13.80;;
75012;SDS011;63567;49.956;20.130;2023-03-01T00:39:45;31.58;;;13.48;;
75012;SDS011;63567;49.956;20.130;2023-03-01T00:42:11;32.67;;;13.37;;
75012;SDS011;63567;49.956;20.130;2023-03-01T00:44:36;31.67;;;12.97;;
75012;SDS011;63567;49.956;20.130;2023-03-01T00:47:01;33.63;;;13.60;;
75012;SDS011;63567;49.956;20.130;2023-03-01T00:49:26;32.83;;;13.13;;
75012;SDS011;63567;49.956;20.130;2023-03-01T00:51:52;30.30;;;13.27;;
75012;SDS011;63567;49.956;20.130;2023-03-01T00:54:18;30.58;;;12.07;;
75012;SDS011;63567;49.956;20.130;2023-03-01T00:56:43;30.83;;;12.83;;
75012;SDS011;63567;49.956;20.130;2023-03-01T00:59:08;29.97;;;12.80;;
75012;SDS011;63567;49.956;20.130;2023-03-01T01:01:34;29.70;;;12.93;;
75012;SDS011;63567;49.956;20.130;2023-03-01T01:04:00;31.07;;;13.03;;
75012;SDS011;63567;49.956;20.130;2023-03-01T01:06:28;32.63;;;13.25;;
75012;SDS011;63567;49.956;20.130;2023-03-01T01:08:55;30.00;;;12.93;;
75012;SDS011;63567;49.956;20.130;2023-03-01T01:11:22;28.48;;;12.25;;
75012;SDS011;63567;49.956;20.130;2023-03-01T01:13:48;34.30;;;15.23;;
75012;SDS011;63567;49.956;20.130;2023-03-01T01:16:15;39.13;;;16.88;;
75012;SDS011;63567;49.956;20.130;2023-03-01T01:18:41;43.30;;;18.00;;
75012;SDS011;63567;49.956;20.130;2023-03-01T01:21:09;48.33;;;19.35;;
75012;SDS011;63567;49.956;20.130;2023-03-01T01:23:37;45.88;;;18.08;;
75012;SDS011;63567;49.956;20.130;2023-03-01T01:26:04;46.83;;;19.35;;
75012;SDS011;63567;49.956;20.130;2023-03-01T01:28:31;44.88;;;19.67;;
75012;SDS011;63567;49.956;20.130;2023-03-01T01:30:56;46.47;;;19.50;;
75012;SDS011;63567;49.956;20.130;2023-03-01T01:33:22;44.33;;;19.83;;
75012;SDS011;63567;49.956;20.130;2023-03-01T01:35:47;43.43;;;18.63;;
75012;SDS011;63567;49.956;20.130;2023-03-01T01:38:12;39.47;;;16.30;;
75012;SDS011;63567;49.956;20.130;2023-03-01T01:40:44;38.97;;;17.17;;
75012;SDS011;63567;49.956;20.130;2023-03-01T01:46:06;38.63;;;17.30;;
75012;SDS011;63567;49.956;20.130;2023-03-01T01:48:41;49.45;;;20.52;;
75012;SDS011;63567;49.956;20.130;2023-03-01T01:51:12;72.65;;;29.17;;
75012;SDS011;63567;49.956;20.130;2023-03-01T01:53:41;65.88;;;25.23;;
75012;SDS011;63567;49.956;20.130;2023-03-01T01:56:10;54.92;;;22.63;;
75012;SDS011;63567;49.956;20.130;2023-03-01T01:58:39;55.53;;;22.92;;
75012;SDS011;63567;49.956;20.130;2023-03-01T02:01:07;54.90;;;21.00;;
75012;SDS011;63567;49.956;20.130;2023-03-01T02:03:33;55.38;;;23.90;;
75012;SDS011;63567;49.956;20.130;2023-03-01T02:06:06;61.92;;;23.38;;
75012;SDS011;63567;49.956;20.130;2023-03-01T02:08:38;56.65;;;23.05;;
75012;SDS011;63567;49.956;20.130;2023-03-01T02:11:06;60.88;;;23.80;;
75012;SDS011;63567;49.956;20.130;2023-03-01T02:13:33;60.65;;;25.60;;
75012;SDS011;63567;49.956;20.130;2023-03-01T02:16:02;58.08;;;25.10;;
75012;SDS011;63567;49.956;20.130;2023-03-01T02:18:29;58.42;;;23.10;;
75012;SDS011;63567;49.956;20.130;2023-03-01T02:23:29;56.58;;;22.27;;
75012;SDS011;63567;49.956;20.130;2023-03-01T02:25:57;43.90;;;18.13;;
75012;SDS011;63567;49.956;20.130;2023-03-01T02:28:38;41.17;;;17.20;;
75012;SDS011;63567;49.956;20.130;2023-03-01T02:31:07;36.45;;;14.95;;
75012;SDS011;63567;49.956;20.130;2023-03-01T02:33:53;32.60;;;14.75;;
75012;SDS011;63567;49.956;20.130;2023-03-01T02:36:21;34.22;;;13.77;;
75012;SDS011;63567;49.956;20.130;2023-03-01T02:38:50;26.95;;;11.68;;
75012;SDS011;63567;49.956;20.130;2023-03-01T02:41:18;24.02;;;10.50;;
75012;SDS011;63567;49.956;20.130;2023-03-01T02:43:44;23.10;;;9.70;;
75012;SDS011;63567;49.956;20.130;2023-03-01T02:46:28;24.45;;;9.00;;
75012;SDS011;63567;49.956;20.130;2023-03-01T02:48:55;23.35;;;9.10;;
75012;SDS011;63567;49.956;20.130;2023-03-01T02:57:16;24.02;;;10.07;;
75012;SDS011;63567;49.956;20.130;2023-03-01T02:59:42;24.70;;;10.02;;
75012;SDS011;63567;49.956;20.130;2023-03-01T03:02:18;33.35;;;13.48;;
75012;SDS011;63567;49.956;20.130;2023-03-01T03:05:01;30.75;;;12.98;;
75012;SDS011;63567;49.956;20.130;2023-03-01T03:07:47;30.42;;;13.80;;
75012;SDS011;63567;49.956;20.130;2023-03-01T03:10:14;30.17;;;14.35;;
75012;SDS011;63567;49.956;20.130;2023-03-01T03:12:44;33.92;;;14.55;;
75012;SDS011;63567;49.956;20.130;2023-03-01T03:15:10;34.08;;;14.10;;
75012;SDS011;63567;49.956;20.130;2023-03-01T03:17:37;35.53;;;14.18;;
75012;SDS011;63567;49.956;20.130;2023-03-01T03:20:04;31.88;;;14.23;;
75012;SDS011;63567;49.956;20.130;2023-03-01T03:22:31;34.20;;;14.80;;
75012;SDS011;63567;49.956;20.130;2023-03-01T03:24:58;38.45;;;15.73;;
75012;SDS011;63567;49.956;20.130;2023-03-01T03:27:24;32.72;;;14.07;;
75012;SDS011;63567;49.956;20.130;2023-03-01T03:29:49;31.67;;;14.37;;
75012;SDS011;63567;49.956;20.130;2023-03-01T03:32:14;30.33;;;13.83;;
75012;SDS011;63567;49.956;20.130;2023-03-01T03:34:39;34.00;;;13.53;;
75012;SDS011;63567;49.956;20.130;2023-03-01T03:37:05;32.63;;;14.00;;
75012;SDS011;63567;49.956;20.130;2023-03-01T03:39:50;30.05;;;12.18;;
75012;SDS011;63567;49.956;20.130;2023-03-01T03:42:19;28.50;;;12.20;;
75012;SDS011;63567;49.956;20.130;2023-03-01T03:44:45;28.90;;;12.80;;
75012;SDS011;63567;49.956;20.130;2023-03-01T03:47:10;26.77;;;11.77;;
75012;SDS011;63567;49.956;20.130;2023-03-01T03:49:36;28.23;;;11.93;;
75012;SDS011;63567;49.956;20.130;2023-03-01T03:52:01;33.07;;;12.53;;
75012;SDS011;63567;49.956;20.130;2023-03-01T03:54:26;31.90;;;12.97;;
75012;SDS011;63567;49.956;20.130;2023-03-01T03:56:51;34.40;;;13.43;;
75012;SDS011;63567;49.956;20.130;2023-03-01T03:59:16;33.10;;;13.97;;
75012;SDS011;63567;49.956;20.130;2023-03-01T04:01:42;30.13;;;12.57;;
75012;SDS011;63567;49.956;20.130;2023-03-01T04:04:07;29.10;;;12.23;;
75012;SDS011;63567;49.956;20.130;2023-03-01T04:06:32;32.93;;;13.13;;
75012;SDS011;63567;49.956;20.130;2023-03-01T04:08:58;29.63;;;11.90;;
75012;SDS011;63567;49.956;20.130;2023-03-01T04:11:27;29.20;;;12.35;;
75012;SDS011;63567;49.956;20.130;2023-03-01T04:13:54;30.30;;;11.70;;
75012;SDS011;63567;49.956;20.130;2023-03-01T04:16:21;24.90;;;10.98;;
75012;SDS011;63567;49.956;20.130;2023-03-01T04:18:47;28.58;;;10.77;;
75012;SDS011;63567;49.956;20.130;2023-03-01T04:21:12;23.90;;;10.27;;
75012;SDS011;63567;49.956;20.130;2023-03-01T04:23:38;22.88;;;10.85;;
75012;SDS011;63567;49.956;20.130;2023-03-01T04:26:05;25.13;;;10.52;;
75012;SDS011;63567;49.956;20.130;2023-03-01T04:28:32;29.87;;;12.87;;
75012;SDS011;63567;49.956;20.130;2023-03-01T04:31:01;34.45;;;13.10;;
75012;SDS011;63567;49.956;20.130;2023-03-01T04:33:37;34.42;;;15.13;;
75012;SDS011;63567;49.956;20.130;2023-03-01T04:36:03;33.28;;;14.90;;
75012;SDS011;63567;49.956;20.130;2023-03-01T04:38:30;37.15;;;15.27;;
75012;SDS011;63567;49.956;20.130;2023-03-01T04:40:55;32.83;;;12.97;;
75012;SDS011;63567;49.956;20.130;2023-03-01T04:43:20;31.02;;;12.73;;
75012;SDS011;63567;49.956;20.130;2023-03-01T04:45:46;36.20;;;14.07;;
75012;SDS011;63567;49.956;20.130;2023-03-01T04:48:11;34.63;;;14.03;;
75012;SDS011;63567;49.956;20.130;2023-03-01T04:50:36;37.10;;;14.43;;
75012;SDS011;63567;49.956;20.130;2023-03-01T04:53:02;38.73;;;17.37;;
75012;SDS011;63567;49.956;20.130;2023-03-01T04:55:27;53.17;;;21.10;;
75012;SDS011;63567;49.956;20.130;2023-03-01T04:57:53;49.53;;;19.42;;
75012;SDS011;63567;49.956;20.130;2023-03-01T05:00:20;46.70;;;18.50;;
75012;SDS011;63567;49.956;20.130;2023-03-01T05:02:53;40.88;;;15.02;;
75012;SDS011;63567;49.956;20.130;2023-03-01T05:05:22;34.25;;;13.65;;
75012;SDS011;63567;49.956;20.130;2023-03-01T05:07:54;35.83;;;14.40;;
75012;SDS011;63567;49.956;20.130;2023-03-01T05:10:20;35.70;;;15.63;;
75012;SDS011;63567;49.956;20.130;2023-03-01T05:12:46;39.35;;;16.20;;
75012;SDS011;63567;49.956;20.130;2023-03-01T05:15:11;41.28;;;16.13;;
75012;SDS011;63567;49.956;20.130;2023-03-01T05:17:37;46.85;;;18.50;;
75012;SDS011;63567;49.956;20.130;2023-03-01T05:20:02;53.07;;;20.50;;
75012;SDS011;63567;49.956;20.130;2023-03-01T05:22:32;49.50;;;21.42;;
75012;SDS011;63567;49.956;20.130;2023-03-01T05:24:57;54.97;;;23.50;;
75012;SDS011;63567;49.956;20.130;2023-03-01T05:27:23;52.97;;;23.13;;
75012;SDS011;63567;49.956;20.130;2023-03-01T05:29:48;60.30;;;25.07;;
75012;SDS011;63567;49.956;20.130;2023-03-01T05:32:13;100.63;;;40.33;;
75012;SDS011;63567;49.956;20.130;2023-03-01T05:34:40;112.82;;;40.05;;
75012;SDS011;63567;49.956;20.130;2023-03-01T05:37:06;62.80;;;24.15;;
75012;SDS011;63567;49.956;20.130;2023-03-01T05:39:32;54.60;;;21.27;;
75012;SDS011;63567;49.956;20.130;2023-03-01T05:41:58;46.17;;;18.30;;
75012;SDS011;63567;49.956;20.130;2023-03-01T05:44:26;42.70;;;18.15;;
75012;SDS011;63567;49.956;20.130;2023-03-01T05:46:54;40.08;;;16.83;;
75012;SDS011;63567;49.956;20.130;2023-03-01T05:49:20;42.38;;;16.60;;
75012;SDS011;63567;49.956;20.130;2023-03-01T05:51:49;36.28;;;16.08;;
75012;SDS011;63567;49.956;20.130;2023-03-01T05:54:15;37.97;;;16.30;;
75012;SDS011;63567;49.956;20.130;2023-03-01T05:56:41;39.85;;;16.45;;
75012;SDS011;63567;49.956;20.130;2023-03-01T05:59:06;33.10;;;14.30;;
75012;SDS011;63567;49.956;20.130;2023-03-01T06:01:32;38.20;;;14.85;;
75012;SDS011;63567;49.956;20.130;2023-03-01T06:03:58;32.63;;;13.82;;
75012;SDS011;63567;49.956;20.130;2023-03-01T06:06:24;38.13;;;14.88;;
75012;SDS011;63567;49.956;20.130;2023-03-01T06:08:50;37.55;;;16.08;;
75012;SDS011;63567;49.956;20.130;2023-03-01T06:11:16;35.30;;;15.68;;
75012;SDS011;63567;49.956;20.130;2023-03-01T06:13:44;33.63;;;14.87;;
75012;SDS011;63567;49.956;20.130;2023-03-01T06:16:10;38.65;;;16.73;;
75012;SDS011;63567;49.956;20.130;2023-03-01T06:18:36;36.70;;;15.43;;
75012;SDS011;63567;49.956;20.130;2023-03-01T06:21:02;34.65;;;14.38;;
75012;SDS011;63567;49.956;20.130;2023-03-01T06:23:28;27.40;;;12.50;;
75012;SDS011;63567;49.956;20.130;2023-03-01T06:25:53;29.90;;;12.87;;
75012;SDS011;63567;49.956;20.130;2023-03-01T06:28:18;30.77;;;13.93;;
75012;SDS011;63567;49.956;20.130;2023-03-01T06:30:44;31.70;;;13.03;;
75012;SDS011;63567;49.956;20.130;2023-03-01T06:33:09;26.70;;;12.43;;
75012;SDS011;63567;49.956;20.130;2023-03-01T06:35:34;28.63;;;13.03;;
75012;SDS011;63567;49.956;20.130;2023-03-01T06:38:00;28.33;;;14.27;;
75012;SDS011;63567;49.956;20.130;2023-03-01T06:40:27;28.13;;;13.65;;
75012;SDS011;63567;49.956;20.130;2023-03-01T06:42:53;23.27;;;10.50;;
75012;SDS011;63567;49.956;20.130;2023-03-01T06:45:18;21.77;;;10.40;;
75012;SDS011;63567;49.956;20.130;2023-03-01T06:47:45;22.92;;;10.52;;
75012;SDS011;63567;49.956;20.130;2023-03-01T06:50:11;24.95;;;10.35;;
75012;SDS011;63567;49.956;20.130;2023-03-01T06:52:36;21.15;;;9.70;;
75012;SDS011;63567;49.956;20.130;2023-03-01T06:55:02;34.38;;;15.18;;
75012;SDS011;63567;49.956;20.130;2023-03-01T06:57:28;39.88;;;17.50;;
75012;SDS011;63567;49.956;20.130;2023-03-01T06:59:53;39.92;;;16.95;;
75012;SDS011;63567;49.956;20.130;2023-03-01T07:02:19;51.65;;;22.88;;
75012;SDS011;63567;49.956;20.130;2023-03-01T07:04:44;45.97;;;21.50;;
75012;SDS011;63567;49.956;20.130;2023-03-01T07:07:09;50.05;;;24.00;;
75012;SDS011;63567;49.956;20.130;2023-03-01T07:09:35;37.13;;;18.83;;
75012;SDS011;63567;49.956;20.130;2023-03-01T07:12:00;40.70;;;19.17;;
75012;SDS011;63567;49.956;20.130;2023-03-01T07:14:26;35.67;;;17.10;;
75012;SDS011;63567;49.956;20.130;2023-03-01T07:16:52;29.70;;;14.52;;
75012;SDS011;63567;49.956;20.130;2023-03-01T07:19:18;32.35;;;15.68;;
75012;SDS011;63567;49.956;20.130;2023-03-01T07:21:43;27.05;;;13.18;;
75012;SDS011;63567;49.956;20.130;2023-03-01T07:24:09;24.20;;;11.23;;
75012;SDS011;63567;49.956;20.130;2023-03-01T07:26:34;25.42;;;12.10;;
75012;SDS011;63567;49.956;20.130;2023-03-01T07:29:00;26.52;;;12.43;;
75012;SDS011;63567;49.956;20.130;2023-03-01T07:31:27;28.98;;;12.15;;
75012;SDS011;63567;49.956;20.130;2023-03-01T07:33:55;26.13;;;12.93;;
75012;SDS011;63567;49.956;20.130;2023-03-01T07:36:21;28.83;;;13.70;;
75012;SDS011;63567;49.956;20.130;2023-03-01T07:38:46;27.25;;;12.57;;
75012;SDS011;63567;49.956;20.130;2023-03-01T07:41:11;28.97;;;12.77;;
75012;SDS011;63567;49.956;20.130;2023-03-01T07:43:37;28.40;;;13.77;;
75012;SDS011;63567;49.956;20.130;2023-03-01T07:46:02;25.57;;;12.20;;
75012;SDS011;63567;49.956;20.130;2023-03-01T07:48:29;31.25;;;14.02;;
75012;SDS011;63567;49.956;20.130;2023-03-01T07:50:58;24.08;;;12.02;;
75012;SDS011;63567;49.956;20.130;2023-03-01T07:53:24;26.30;;;11.93;;
75012;SDS011;63567;49.956;20.130;2023-03-01T07:55:50;23.90;;;12.47;;
75012;SDS011;63567;49.956;20.130;2023-03-01T07:58:25;22.70;;;11.13;;
75012;SDS011;63567;49.956;20.130;2023-03-01T08:00:50;18.43;;;8.60;;
75012;SDS011;63567;49.956;20.130;2023-03-01T08:03:15;20.60;;;10.63;;
75012;SDS011;63567;49.956;20.130;2023-03-01T08:05:41;18.00;;;9.30;;
75012;SDS011;63567;49.956;20.130;2023-03-01T08:08:06;18.03;;;9.20;;
75012;SDS011;63567;49.956;20.130;2023-03-01T08:10:31;20.83;;;10.90;;
75012;SDS011;63567;49.956;20.130;2023-03-01T08:12:56;20.00;;;10.03;;
75012;SDS011;63567;49.956;20.130;2023-03-01T08:15:22;43.17;;;20.57;;
75012;SDS011;63567;49.956;20.130;2023-03-01T08:17:48;44.33;;;21.23;;
75012;SDS011;63567;49.956;20.130;2023-03-01T08:20:15;37.65;;;19.73;;
75012;SDS011;63567;49.956;20.130;2023-03-01T08:22:41;39.60;;;19.02;;
75012;SDS011;63567;49.956;20.130;2023-03-01T08:25:06;36.10;;;17.93;;
75012;SDS011;63567;49.956;20.130;2023-03-01T08:27:32;34.13;;;17.27;;
75012;SDS011;63567;49.956;20.130;2023-03-01T08:29:57;28.90;;;15.17;;
75012;SDS011;63567;49.956;20.130;2023-03-01T08:32:23;25.53;;;14.90;;
75012;SDS011;63567;49.956;20.130;2023-03-01T08:34:48;25.97;;;13.67;;
75012;SDS011;63567;49.956;20.130;2023-03-01T08:37:13;23.27;;;12.07;;
75012;SDS011;63567;49.956;20.130;2023-03-01T08:39:38;25.07;;;14.87;;
75012;SDS011;63567;49.956;20.130;2023-03-01T08:42:04;28.13;;;15.57;;
75012;SDS011;63567;49.956;20.130;2023-03-01T08:44:29;26.20;;;14.63;;
75012;SDS011;63567;49.956;20.130;2023-03-01T08:46:54;26.60;;;15.77;;
75012;SDS011;63567;49.956;20.130;2023-03-01T08:49:20;25.88;;;13.45;;
75012;SDS011;63567;49.956;20.130;2023-03-01T08:51:46;25.15;;;14.55;;
75012;SDS011;63567;49.956;20.130;2023-03-01T08:54:17;24.35;;;14.57;;
75012;SDS011;63567;49.956;20.130;2023-03-01T08:56:44;26.67;;;14.65;;
75012;SDS011;63567;49.956;20.130;2023-03-01T08:59:10;21.55;;;12.82;;
75012;SDS011;63567;49.956;20.130;2023-03-01T09:01:37;25.77;;;14.82;;
75012;SDS011;63567;49.956;20.130;2023-03-01T09:04:02;26.08;;;13.63;;
75012;SDS011;63567;49.956;20.130;2023-03-01T09:06:30;25.38;;;14.05;;
75012;SDS011;63567;49.956;20.130;2023-03-01T09:08:56;23.95;;;13.73;;
75012;SDS011;63567;49.956;20.130;2023-03-01T09:11:22;23.43;;;14.17;;
75012;SDS011;63567;49.956;20.130;2023-03-01T09:13:47;21.63;;;13.32;;
75012;SDS011;63567;49.956;20.130;2023-03-01T09:16:15;23.08;;;13.20;;
75012;SDS011;63567;49.956;20.130;2023-03-01T09:18:42;18.95;;;13.02;;
75012;SDS011;63567;49.956;20.130;2023-03-01T09:21:12;22.02;;;12.93;;
75012;SDS011;63567;49.956;20.130;2023-03-01T09:23:40;21.00;;;12.25;;
75012;SDS011;63567;49.956;20.130;2023-03-01T09:26:07;22.13;;;13.82;;
75012;SDS011;63567;49.956;20.130;2023-03-01T09:28:35;25.27;;;13.85;;
75012;SDS011;63567;49.956;20.130;2023-03-01T09:31:01;20.17;;;13.43;;
75012;SDS011;63567;49.956;20.130;2023-03-01T09:33:28;23.65;;;14.00;;
75012;SDS011;63567;49.956;20.130;2023-03-01T09:36:04;22.25;;;13.73;;
75012;SDS011;63567;49.956;20.130;2023-03-01T09:38:32;21.55;;;14.20;;
75012;SDS011;63567;49.956;20.130;2023-03-01T09:40:57;21.73;;;12.93;;
75012;SDS011;63567;49.956;20.130;2023-03-01T09:46:09;21.52;;;13.63;;
75012;SDS011;63567;49.956;20.130;2023-03-01T09:48:41;20.45;;;13.05;;
75012;SDS011;63567;49.956;20.130;2023-03-01T09:51:18;21.38;;;13.23;;
75012;SDS011;63567;49.956;20.130;2023-03-01T09:53:48;18.90;;;12.02;;
75012;SDS011;63567;49.956;20.130;2023-03-01T09:56:17;19.55;;;12.25;;
75012;SDS011;63567;49.956;20.130;2023-03-01T09:58:48;20.27;;;12.10;;
75012;SDS011;63567;49.956;20.130;2023-03-01T10:01:29;18.45;;;12.80;;
75012;SDS011;63567;49.956;20.130;2023-03-01T10:04:11;17.30;;;11.52;;
75012;SDS011;63567;49.956;20.130;2023-03-01T10:09:34;16.05;;;11.57;;
75012;SDS011;63567;49.956;20.130;2023-03-01T10:12:02;17.38;;;11.13;;
75012;SDS011;63567;49.956;20.130;2023-03-01T10:14:38;18.10;;;11.30;;
75012;SDS011;63567;49.956;20.130;2023-03-01T10:17:12;17.17;;;10.95;;
75012;SDS011;63567;49.956;20.130;2023-03-01T10:19:49;14.85;;;10.25;;
75012;SDS011;63567;49.956;20.130;2023-03-01T10:24:57;16.92;;;11.80;;
75012;SDS011;63567;49.956;20.130;2023-03-01T10:32:41;23.33;;;14.07;;
75012;SDS011;63567;49.956;20.130;2023-03-01T10:35:15;19.10;;;12.95;;
75012;SDS011;63567;49.956;20.130;2023-03-01T10:40:23;21.58;;;15.60;;
75012;SDS011;63567;49.956;20.130;2023-03-01T10:42:49;19.07;;;14.13;;
75012;SDS011;63567;49.956;20.130;2023-03-01T10:45:37;21.63;;;13.30;;
75012;SDS011;63567;49.956;20.130;2023-03-01T10:48:14;18.63;;;12.48;;
75012;SDS011;63567;49.956;20.130;2023-03-01T10:50:42;17.63;;;12.20;;
75012;SDS011;63567;49.956;20.130;2023-03-01T10:53:23;17.38;;;11.25;;
75012;SDS011;63567;49.956;20.130;2023-03-01T10:58:29;15.32;;;11.23;;
75012;SDS011;63567;49.956;20.130;2023-03-01T11:00:58;18.13;;;12.73;;
75012;SDS011;63567;49.956;20.130;2023-03-01T11:03:27;23.42;;;16.58;;
75012;SDS011;63567;49.956;20.130;2023-03-01T11:08:34;27.50;;;18.30;;
75012;SDS011;63567;49.956;20.130;2023-03-01T11:13:47;27.45;;;22.52;;
75012;SDS011;63567;49.956;20.130;2023-03-01T11:16:16;29.35;;;22.92;;
75012;SDS011;63567;49.956;20.130;2023-03-01T11:19:13;34.10;;;28.02;;
75012;SDS011;63567;49.956;20.130;2023-03-01T11:24:13;32.35;;;28.50;;
75012;SDS011;63567;49.956;20.130;2023-03-01T11:26:42;34.45;;;26.02;;
75012;SDS011;63567;49.956;20.130;2023-03-01T11:29:58;38.35;;;32.20;;
75012;SDS011;63567;49.956;20.130;2023-03-01T11:32:19;32.65;;;29.23;;
75012;SDS011;63567;49.956;20.130;2023-03-01T11:37:35;32.47;;;29.27;;
75012;SDS011;63567;49.956;20.130;2023-03-01T11:40:21;32.78;;;27.42;;
75012;SDS011;63567;49.956;20.130;2023-03-01T11:42:54;30.55;;;27.25;;
75012;SDS011;63567;49.956;20.130;2023-03-01T11:45:29;29.90;;;26.52;;
75012;SDS011;63567;49.956;20.130;2023-03-01T11:50:48;27.20;;;24.17;;
75012;SDS011;63567;49.956;20.130;2023-03-01T11:59:01;28.88;;;26.08;;
75012;SDS011;63567;49.956;20.130;2023-03-01T12:01:51;30.58;;;27.48;;
75012;SDS011;63567;49.956;20.130;2023-03-01T12:07:36;27.50;;;24.98;;
75012;SDS011;63567;49.956;20.130;2023-03-01T12:10:17;29.63;;;27.13;;
75012;SDS011;63567;49.956;20.130;2023-03-01T12:12:58;23.63;;;21.33;;
75012;SDS011;63567;49.956;20.130;2023-03-01T12:18:47;31.33;;;28.80;;
75012;SDS011;63567;49.956;20.130;2023-03-01T12:21:29;32.25;;;29.95;;
75012;SDS011;63567;49.956;20.130;2023-03-01T12:27:06;31.55;;;29.02;;
75012;SDS011;63567;49.956;20.130;2023-03-01T12:35:32;32.67;;;30.27;;
75012;SDS011;63567;49.956;20.130;2023-03-01T12:44:29;34.63;;;32.13;;
75012;SDS011;63567;49.956;20.130;2023-03-01T12:47:19;33.55;;;30.98;;
75012;SDS011;63567;49.956;20.130;2023-03-01T12:50:00;32.90;;;30.27;;
75012;SDS011;63567;49.956;20.130;2023-03-01T12:52:38;37.90;;;35.05;;
75012;SDS011;63567;49.956;20.130;2023-03-01T12:55:19;34.50;;;32.15;;
75012;SDS011;63567;49.956;20.130;2023-03-01T12:58:03;34.08;;;31.20;;
75012;SDS011;63567;49.956;20.130;2023-03-01T13:03:26;37.75;;;34.85;;
75012;SDS011;63567;49.956;20.130;2023-03-01T13:06:33;34.45;;;31.75;;
75012;SDS011;63567;49.956;20.130;2023-03-01T13:11:52;33.50;;;30.80;;
75012;SDS011;63567;49.956;20.130;2023-03-01T13:16:47;35.15;;;32.53;;
75012;SDS011;63567;49.956;20.130;2023-03-01T13:19:21;36.92;;;34.22;;
75012;SDS011;63567;49.956;20.130;2023-03-01T13:21:49;36.60;;;33.90;;
75012;SDS011;63567;49.956;20.130;2023-03-01T13:29:50;33.30;;;30.58;;
75012;SDS011;63567;49.956;20.130;2023-03-01T13:32:22;32.35;;;29.70;;
75012;SDS011;63567;49.956;20.130;2023-03-01T13:37:26;31.42;;;28.67;;
75012;SDS011;63567;49.956;20.130;2023-03-01T13:39:57;32.85;;;30.23;;
75012;SDS011;63567;49.956;20.130;2023-03-01T13:45:15;28.17;;;25.83;;
75012;SDS011;63567;49.956;20.130;2023-03-01T13:47:44;28.38;;;26.02;;
75012;SDS011;63567;49.956;20.130;2023-03-01T13:50:45;28.38;;;25.98;;
75012;SDS011;63567;49.956;20.130;2023-03-01T13:53:17;26.80;;;24.30;;
75012;SDS011;63567;49.956;20.130;2023-03-01T13:55:45;28.00;;;25.70;;
75012;SDS011;63567;49.956;20.130;2023-03-01T14:00:44;25.55;;;23.25;;
75012;SDS011;63567;49.956;20.130;2023-03-01T14:05:37;21.58;;;19.70;;
75012;SDS011;63567;49.956;20.130;2023-03-01T14:08:03;23.23;;;20.95;;
75012;SDS011;63567;49.956;20.130;2023-03-01T14:10:53;22.25;;;20.25;;
75012;SDS011;63567;49.956;20.130;2023-03-01T14:13:45;20.70;;;18.70;;
75012;SDS011;63567;49.956;20.130;2023-03-01T14:16:31;23.27;;;20.98;;
75012;SDS011;63567;49.956;20.130;2023-03-01T14:19:17;23.25;;;21.05;;
75012;SDS011;63567;49.956;20.130;2023-03-01T14:21:49;17.77;;;15.88;;
75012;SDS011;63567;49.956;20.130;2023-03-01T14:24:25;20.08;;;18.17;;
75012;SDS011;63567;49.956;20.130;2023-03-01T14:26:52;20.33;;;15.95;;
75012;SDS011;63567;49.956;20.130;2023-03-01T14:29:27;23.23;;;20.80;;
75012;SDS011;63567;49.956;20.130;2023-03-01T14:32:10;22.25;;;20.05;;
75012;SDS011;63567;49.956;20.130;2023-03-01T14:34:52;22.33;;;20.13;;
75012;SDS011;63567;49.956;20.130;2023-03-01T14:37:22;20.13;;;17.70;;
75012;SDS011;63567;49.956;20.130;2023-03-01T14:39:54;19.67;;;17.67;;
75012;SDS011;63567;49.956;20.130;2023-03-01T14:42:22;18.77;;;16.70;;
75012;SDS011;63567;49.956;20.130;2023-03-01T14:44:50;20.52;;;16.77;;
75012;SDS011;63567;49.956;20.130;2023-03-01T14:47:26;19.08;;;16.92;;
75012;SDS011;63567;49.956;20.130;2023-03-01T14:49:56;21.25;;;16.50;;
75012;SDS011;63567;49.956;20.130;2023-03-01T14:52:25;20.60;;;17.25;;
75012;SDS011;63567;49.956;20.130;2023-03-01T14:54:59;19.27;;;15.57;;
75012;SDS011;63567;49.956;20.130;2023-03-01T14:57:25;22.60;;;18.38;;
75012;SDS011;63567;49.956;20.130;2023-03-01T14:59:52;24.60;;;17.33;;
75012;SDS011;63567;49.956;20.130;2023-03-01T15:02:20;20.55;;;16.23;;
75012;SDS011;63567;49.956;20.130;2023-03-01T15:04:49;19.67;;;16.65;;
75012;SDS011;63567;49.956;20.130;2023-03-01T15:07:16;22.27;;;16.65;;
75012;SDS011;63567;49.956;20.130;2023-03-01T15:09:43;23.02;;;16.08;;
75012;SDS011;63567;49.956;20.130;2023-03-01T15:14:52;20.92;;;16.23;;
75012;SDS011;63567;49.956;20.130;2023-03-01T15:19:58;20.42;;;14.73;;
75012;SDS011;63567;49.956;20.130;2023-03-01T15:22:24;24.38;;;16.92;;
75012;SDS011;63567;49.956;20.130;2023-03-01T15:24:51;33.92;;;19.15;;
75012;SDS011;63567;49.956;20.130;2023-03-01T15:27:18;41.90;;;22.10;;
75012;SDS011;63567;49.956;20.130;2023-03-01T15:29:50;30.55;;;16.55;;
75012;SDS011;63567;49.956;20.130;2023-03-01T15:32:35;28.02;;;16.67;;
75012;SDS011;63567;49.956;20.130;2023-03-01T15:44:17;26.08;;;13.40;;
75012;SDS011;63567;49.956;20.130;2023-03-01T15:46:50;24.85;;;13.63;;
75012;SDS011;63567;49.956;20.130;2023-03-01T15:52:13;24.80;;;12.73;;
75012;SDS011;63567;49.956;20.130;2023-03-01T15:54:53;22.98;;;13.60;;
75012;SDS011;63567;49.956;20.130;2023-03-01T15:57:18;21.23;;;11.73;;
75012;SDS011;63567;49.956;20.130;2023-03-01T15:59:45;18.27;;;10.50;;
75012;SDS011;63567;49.956;20.130;2023-03-01T16:02:11;22.07;;;11.27;;
75012;SDS011;63567;49.956;20.130;2023-03-01T16:04:37;19.20;;;10.07;;
75012;SDS011;63567;49.956;20.130;2023-03-01T16:07:03;19.67;;;10.32;;
75012;SDS011;63567;49.956;20.130;2023-03-01T16:09:28;19.37;;;10.43;;
75012;SDS011;63567;49.956;20.130;2023-03-01T16:11:54;18.23;;;10.50;;